createdAt,value
2022-08-23T00:00:01.250Z,22.82
2022-08-23T00:01:43.625Z,22.79
2022-08-23T00:03:15.514Z,22.76
2022-08-23T00:04:56.891Z,22.73
2022-08-23T00:06:41.215Z,22.71
2022-08-23T00:08:13.430Z,22.69
2022-08-23T00:09:45.303Z,22.66
2022-08-23T00:11:39.442Z,22.63
2022-08-23T00:13:11.496Z,22.60
2022-08-23T00:14:50.429Z,22.56
2022-08-23T00:16:23.684Z,22.55
2022-08-23T00:17:55.969Z,22.52
2022-08-23T00:19:28.394Z,22.50
2022-08-23T00:21:00.377Z,22.49
2022-08-23T00:22:32.257Z,22.48
2022-08-23T00:24:07.264Z,22.46
2022-08-23T00:25:39.129Z,22.46
2022-08-23T00:27:12.804Z,22.43
2022-08-23T00:28:44.689Z,22.41
2022-08-23T00:30:17.900Z,22.40
2022-08-23T00:31:50.202Z,22.39
2022-08-23T00:33:22.118Z,22.36
2022-08-23T00:34:54.189Z,22.33
2022-08-23T00:36:26.195Z,22.29
2022-08-23T00:38:32.935Z,22.27
2022-08-23T00:39:50.712Z,22.25
2022-08-23T00:41:23.006Z,22.24
2022-08-23T00:43:21.481Z,22.21
2022-08-23T00:45:12.135Z,22.18
2022-08-23T00:47:07.319Z,22.15
2022-08-23T00:48:39.668Z,22.12
2022-08-23T00:50:46.909Z,22.11
2022-08-23T00:52:25.601Z,22.08
2022-08-23T00:54:01.050Z,22.06
2022-08-23T00:55:34.539Z,22.02
2022-08-23T00:57:10.773Z,21.99
2022-08-23T00:58:43.080Z,21.97
2022-08-23T01:00:15.536Z,21.94
2022-08-23T01:01:48.122Z,21.91
2022-08-23T01:03:22.806Z,21.90
2022-08-23T01:04:57.063Z,21.88
2022-08-23T01:06:53.435Z,21.86
2022-08-23T01:08:26.685Z,21.82
2022-08-23T01:10:02.524Z,21.80
2022-08-23T01:11:39.835Z,21.77
2022-08-23T01:13:15.045Z,21.76
2022-08-23T01:14:51.911Z,21.74
2022-08-23T01:16:27.997Z,21.72
2022-08-23T01:18:11.717Z,21.69
2022-08-23T01:19:49.288Z,21.67
2022-08-23T01:21:32.814Z,21.65
2022-08-23T01:23:26.412Z,21.61
2022-08-23T01:25:06.864Z,21.61
2022-08-23T01:26:44.174Z,21.59
2022-08-23T01:28:16.157Z,21.56
2022-08-23T01:29:48.061Z,21.54
2022-08-23T01:31:25.167Z,21.51
2022-08-23T01:32:58.976Z,21.50
2022-08-23T01:34:31.253Z,21.50
2022-08-23T01:36:12.746Z,21.47
2022-08-23T01:37:45.910Z,21.46
2022-08-23T01:39:17.873Z,21.45
2022-08-23T01:40:50.658Z,21.44
2022-08-23T01:42:22.456Z,21.42
2022-08-23T01:43:54.432Z,21.37
2022-08-23T01:45:30.121Z,21.36
2022-08-23T01:47:02.125Z,21.34
2022-08-23T01:48:34.257Z,21.33
2022-08-23T01:50:08.547Z,21.35
2022-08-23T01:51:40.532Z,21.34
2022-08-23T01:53:13.827Z,21.30
2022-08-23T01:54:50.299Z,21.27
2022-08-23T01:56:38.270Z,21.23
2022-08-23T01:58:13.543Z,21.21
2022-08-23T01:59:45.521Z,21.18
2022-08-23T02:01:19.129Z,21.16
2022-08-23T02:02:51.934Z,21.07
2022-08-23T02:04:23.974Z,21.04
2022-08-23T02:05:56.694Z,20.96
2022-08-23T02:07:29.222Z,20.86
2022-08-23T02:09:03.394Z,20.78
2022-08-23T02:10:38.795Z,20.67
2022-08-23T02:12:11.389Z,20.59
2022-08-23T02:13:45.182Z,20.47
2022-08-23T02:15:18.356Z,20.42
2022-08-23T02:17:03.967Z,20.37
2022-08-23T02:18:38.108Z,20.36
2022-08-23T02:20:10.394Z,20.33
2022-08-23T02:21:43.479Z,20.29
2022-08-23T02:23:19.440Z,20.27
2022-08-23T02:24:51.435Z,20.28
2022-08-23T02:26:31.188Z,20.33
2022-08-23T02:28:04.948Z,20.34
2022-08-23T02:29:39.112Z,20.36
2022-08-23T02:31:13.600Z,20.39
2022-08-23T02:32:45.979Z,20.41
2022-08-23T02:34:20.702Z,20.42
2022-08-23T02:35:52.657Z,20.44
2022-08-23T02:37:25.013Z,20.43
2022-08-23T02:38:56.974Z,20.46
2022-08-23T02:40:29.050Z,20.46
2022-08-23T02:42:01.218Z,20.45
2022-08-23T02:43:40.969Z,20.45
2022-08-23T02:45:13.979Z,20.46
2022-08-23T02:46:51.300Z,20.48
2022-08-23T02:48:23.203Z,20.48
2022-08-23T02:50:08.343Z,20.51
2022-08-23T02:51:41.598Z,20.51
2022-08-23T02:53:13.619Z,20.51
2022-08-23T02:54:45.522Z,20.48
2022-08-23T02:56:21.644Z,20.49
2022-08-23T02:57:55.626Z,20.48
2022-08-23T02:59:27.395Z,20.47
2022-08-23T03:00:59.805Z,20.45
2022-08-23T03:02:31.860Z,20.44
2022-08-23T03:04:06.607Z,20.43
2022-08-23T03:05:38.441Z,20.41
2022-08-23T03:07:10.361Z,20.28
2022-08-23T03:08:43.311Z,20.23
2022-08-23T03:10:17.994Z,20.13
2022-08-23T03:11:58.894Z,20.12
2022-08-23T03:13:31.124Z,20.11
2022-08-23T03:15:04.460Z,20.09
2022-08-23T03:16:39.608Z,20.06
2022-08-23T03:18:12.992Z,20.07
2022-08-23T03:19:45.911Z,20.08
2022-08-23T03:21:18.547Z,20.11
2022-08-23T03:22:54.433Z,20.12
2022-08-23T03:24:28.524Z,20.16
2022-08-23T03:26:01.992Z,20.15
2022-08-23T03:27:38.367Z,20.14
2022-08-23T03:29:17.534Z,20.12
2022-08-23T03:31:09.041Z,20.10
2022-08-23T03:32:50.784Z,20.10
2022-08-23T03:34:22.641Z,20.11
2022-08-23T03:35:59.749Z,20.10
2022-08-23T03:37:32.372Z,20.08
2022-08-23T03:39:05.640Z,20.09
2022-08-23T03:40:37.770Z,20.12
2022-08-23T03:42:10.330Z,20.11
2022-08-23T03:43:42.225Z,20.11
2022-08-23T03:45:14.488Z,20.11
2022-08-23T03:46:46.334Z,20.11
2022-08-23T03:48:18.789Z,20.10
2022-08-23T03:49:51.784Z,20.10
2022-08-23T03:51:24.694Z,20.11
2022-08-23T03:52:57.290Z,20.10
2022-08-23T03:54:30.241Z,20.09
2022-08-23T03:56:02.989Z,20.10
2022-08-23T03:57:34.903Z,20.09
2022-08-23T03:59:11.601Z,20.07
2022-08-23T04:00:44.053Z,20.05
2022-08-23T04:02:16.824Z,20.04
2022-08-23T04:03:48.675Z,20.01
2022-08-23T04:05:21.851Z,20.01
2022-08-23T04:07:03.116Z,19.97
2022-08-23T04:08:35.090Z,19.97
2022-08-23T04:10:09.927Z,19.94
2022-08-23T04:11:44.297Z,19.94
2022-08-23T04:13:16.205Z,19.96
2022-08-23T04:14:48.069Z,19.93
2022-08-23T04:16:20.695Z,19.93
2022-08-23T04:17:52.760Z,19.90
2022-08-23T04:19:24.775Z,19.87
2022-08-23T04:21:10.815Z,19.87
2022-08-23T04:22:42.977Z,19.84
2022-08-23T04:24:19.167Z,19.84
2022-08-23T04:25:51.393Z,19.82
2022-08-23T04:27:23.767Z,19.82
2022-08-23T04:28:57.043Z,19.80
2022-08-23T04:30:29.078Z,19.77
2022-08-23T04:32:02.173Z,19.77
2022-08-23T04:33:40.201Z,19.75
2022-08-23T04:35:15.027Z,19.71
2022-08-23T04:36:51.943Z,19.68
2022-08-23T04:38:27.505Z,19.64
2022-08-23T04:40:21.507Z,19.63
2022-08-23T04:42:14.750Z,19.61
2022-08-23T04:43:47.462Z,19.59
2022-08-23T04:45:19.829Z,19.57
2022-08-23T04:46:55.006Z,19.54
2022-08-23T04:48:27.368Z,19.44
2022-08-23T04:49:59.286Z,19.39
2022-08-23T04:51:31.381Z,19.34
2022-08-23T04:53:03.716Z,19.28
2022-08-23T04:54:40.839Z,19.24
2022-08-23T04:56:42.768Z,19.23
2022-08-23T04:58:15.844Z,19.17
2022-08-23T04:59:50.612Z,19.17
2022-08-23T05:01:26.386Z,19.15
2022-08-23T05:02:59.691Z,19.17
2022-08-23T05:04:31.775Z,19.22
2022-08-23T05:06:05.328Z,19.24
2022-08-23T05:07:44.664Z,19.24
2022-08-23T05:09:20.517Z,19.24
2022-08-23T05:10:53.803Z,19.23
2022-08-23T05:12:25.860Z,19.19
2022-08-23T05:14:04.367Z,19.21
2022-08-23T05:15:36.282Z,19.24
2022-08-23T05:17:10.223Z,19.25
2022-08-23T05:18:42.737Z,19.24
2022-08-23T05:20:14.810Z,19.27
2022-08-23T05:21:47.686Z,19.32
2022-08-23T05:23:20.342Z,19.35
2022-08-23T05:25:05.506Z,19.36
2022-08-23T05:26:46.269Z,19.36
2022-08-23T05:28:22.708Z,19.35
2022-08-23T05:30:00.987Z,19.32
2022-08-23T05:31:34.279Z,19.34
2022-08-23T05:33:08.369Z,19.35
2022-08-23T05:34:40.275Z,19.37
2022-08-23T05:36:17.008Z,19.41
2022-08-23T05:37:48.837Z,19.44
2022-08-23T05:39:30.358Z,19.44
2022-08-23T05:41:10.534Z,19.45
2022-08-23T05:42:42.584Z,19.44
2022-08-23T05:44:14.555Z,19.41
2022-08-23T05:45:48.373Z,19.39
2022-08-23T05:47:24.720Z,19.39
2022-08-23T05:49:15.649Z,19.35
2022-08-23T05:50:54.238Z,19.37
2022-08-23T05:52:26.588Z,19.38
2022-08-23T05:54:00.798Z,19.41
2022-08-23T05:55:35.006Z,19.42
2022-08-23T05:57:35.270Z,19.42
2022-08-23T05:59:12.554Z,19.39
2022-08-23T06:00:46.188Z,19.37
2022-08-23T06:02:18.364Z,19.35
2022-08-23T06:03:50.647Z,19.40
2022-08-23T06:05:22.752Z,19.45
2022-08-23T06:06:58.875Z,19.49
2022-08-23T06:08:31.180Z,19.51
2022-08-23T06:10:04.629Z,19.54
2022-08-23T06:11:38.337Z,19.59
2022-08-23T06:13:11.824Z,19.69
2022-08-23T06:14:43.710Z,19.76
2022-08-23T06:16:19.080Z,19.81
2022-08-23T06:17:51.341Z,19.88
2022-08-23T06:19:23.956Z,19.97
2022-08-23T06:21:28.905Z,20.08
2022-08-23T06:23:01.404Z,20.12
2022-08-23T06:24:34.096Z,20.15
2022-08-23T06:26:25.516Z,20.26
2022-08-23T06:28:01.521Z,20.33
2022-08-23T06:29:35.173Z,20.33
2022-08-23T06:31:47.053Z,20.38
2022-08-23T06:33:22.109Z,20.41
2022-08-23T06:35:37.848Z,20.48
2022-08-23T06:37:28.281Z,20.54
2022-08-23T06:39:28.014Z,20.61
2022-08-23T06:41:12.922Z,20.69
2022-08-23T06:43:04.733Z,20.78
2022-08-23T06:44:55.690Z,20.82
2022-08-23T06:46:41.226Z,20.85
2022-08-23T06:48:18.267Z,20.89
2022-08-23T06:49:53.399Z,20.90
2022-08-23T06:51:52.461Z,20.96
2022-08-23T06:53:42.765Z,20.93
2022-08-23T06:55:31.731Z,20.95
2022-08-23T06:57:26.787Z,20.99
2022-08-23T06:59:19.474Z,20.99
2022-08-23T07:01:44.165Z,21.01
2022-08-23T07:03:18.410Z,21.07
2022-08-23T07:05:22.639Z,21.11
2022-08-23T07:07:12.261Z,21.15
2022-08-23T07:08:44.477Z,21.20
2022-08-23T07:10:16.650Z,21.28
2022-08-23T07:11:48.899Z,21.34
2022-08-23T07:13:20.811Z,21.38
2022-08-23T07:14:53.181Z,21.45
2022-08-23T07:16:25.907Z,21.54
2022-08-23T07:17:57.944Z,21.65
2022-08-23T07:19:31.847Z,21.77
2022-08-23T07:21:05.449Z,21.81
2022-08-23T07:22:37.375Z,21.89
2022-08-23T07:24:10.200Z,22.02
2022-08-23T07:25:42.181Z,22.12
2022-08-23T07:27:17.961Z,22.25
2022-08-23T07:29:04.802Z,22.40
2022-08-23T07:30:36.682Z,22.53
2022-08-23T07:32:09.757Z,22.72
2022-08-23T07:33:44.562Z,22.82
2022-08-23T07:35:21.519Z,22.95
2022-08-23T07:36:55.128Z,23.03
2022-08-23T07:38:30.590Z,23.13
2022-08-23T07:40:04.126Z,23.29
2022-08-23T07:41:38.921Z,23.35
2022-08-23T07:43:13.264Z,23.48
2022-08-23T07:44:46.489Z,23.61
2022-08-23T07:46:19.729Z,23.63
2022-08-23T07:47:52.353Z,23.71
2022-08-23T07:49:29.185Z,23.72
2022-08-23T07:51:09.064Z,23.76
2022-08-23T07:52:44.764Z,23.77
2022-08-23T07:54:21.416Z,23.81
2022-08-23T07:56:29.360Z,23.95
2022-08-23T07:58:13.108Z,24.06
2022-08-23T08:00:04.588Z,24.17
2022-08-23T08:01:53.273Z,24.22
2022-08-23T08:03:29.837Z,24.32
2022-08-23T08:05:24.832Z,24.44
2022-08-23T08:07:18.269Z,24.52
2022-08-23T08:08:54.544Z,24.62
2022-08-23T08:10:28.988Z,24.79
2022-08-23T08:12:01.191Z,24.92
2022-08-23T08:13:38.822Z,25.11
2022-08-23T08:15:11.359Z,25.21
2022-08-23T08:16:48.119Z,25.34
2022-08-23T08:18:25.512Z,25.39
2022-08-23T08:20:37.025Z,25.58
2022-08-23T08:22:29.217Z,25.58
2022-08-23T08:24:35.045Z,25.67
2022-08-23T08:26:11.806Z,25.82
2022-08-23T08:27:51.687Z,25.97
2022-08-23T08:29:23.704Z,25.97
2022-08-23T08:30:56.405Z,25.99
2022-08-23T08:32:28.362Z,26.07
2022-08-23T08:34:00.473Z,26.20
2022-08-23T08:35:32.344Z,26.17
2022-08-23T08:37:04.502Z,26.26
2022-08-23T08:38:47.931Z,26.38
2022-08-23T08:40:31.726Z,26.54
2022-08-23T08:42:12.177Z,26.67
2022-08-23T08:44:06.784Z,26.79
2022-08-23T08:45:59.381Z,26.86
2022-08-23T08:47:39.621Z,26.95
2022-08-23T08:49:18.643Z,27.10
2022-08-23T08:50:55.480Z,27.29
2022-08-23T08:52:32.407Z,27.34
2022-08-23T08:54:11.636Z,27.33
2022-08-23T08:55:52.993Z,27.44
2022-08-23T08:57:27.728Z,27.47
2022-08-23T08:59:09.499Z,27.62
2022-08-23T09:00:41.487Z,27.70
2022-08-23T09:02:22.152Z,27.87
2022-08-23T09:04:06.786Z,27.91
2022-08-23T09:06:00.340Z,28.00
2022-08-23T09:08:10.537Z,28.16
2022-08-23T09:10:03.830Z,28.35
2022-08-23T09:11:45.754Z,28.56
2022-08-23T09:13:53.963Z,28.53
2022-08-23T09:15:36.742Z,28.54
2022-08-23T09:17:26.526Z,28.70
2022-08-23T09:19:01.314Z,28.77
2022-08-23T09:20:34.911Z,28.77
2022-08-23T09:22:17.277Z,28.95
2022-08-23T09:23:57.134Z,29.05
2022-08-23T09:26:03.520Z,29.18
2022-08-23T09:27:45.728Z,29.20
2022-08-23T09:29:20.944Z,29.19
2022-08-23T09:30:58.194Z,29.18
2022-08-23T09:32:37.817Z,29.06
2022-08-23T09:34:19.591Z,29.11
2022-08-23T09:36:19.123Z,29.07
2022-08-23T09:38:20.565Z,29.15
2022-08-23T09:40:20.875Z,29.42
2022-08-23T09:41:53.143Z,29.50
2022-08-23T09:43:34.029Z,29.69
2022-08-23T09:45:35.167Z,29.82
2022-08-23T09:47:23.459Z,29.88
2022-08-23T09:49:01.387Z,30.17
2022-08-23T09:50:43.391Z,30.19
2022-08-23T09:52:29.271Z,30.15
2022-08-23T09:54:22.150Z,30.19
2022-08-23T09:55:57.387Z,30.23
2022-08-23T09:57:31.931Z,30.33
2022-08-23T09:59:04.432Z,30.43
2022-08-23T10:00:47.104Z,30.65
2022-08-23T10:02:21.577Z,30.84
2022-08-23T10:04:41.173Z,30.98
2022-08-23T10:06:31.370Z,30.94
2022-08-23T10:08:10.330Z,30.89
2022-08-23T10:09:48.094Z,30.91
2022-08-23T10:11:20.202Z,30.88
2022-08-23T10:12:54.365Z,30.76
2022-08-23T10:14:33.963Z,30.87
2022-08-23T10:16:23.129Z,31.08
2022-08-23T10:18:12.068Z,31.37
2022-08-23T10:20:06.116Z,31.55
2022-08-23T10:21:48.161Z,31.35
2022-08-23T10:23:22.936Z,31.28
2022-08-23T10:25:24.727Z,31.26
2022-08-23T10:27:30.737Z,31.51
2022-08-23T10:29:35.424Z,31.89
2022-08-23T10:31:23.242Z,32.24
2022-08-23T10:33:05.121Z,32.12
2022-08-23T10:34:59.005Z,32.26
2022-08-23T10:36:43.126Z,32.16
2022-08-23T10:38:24.465Z,32.23
2022-08-23T10:40:10.123Z,32.25
2022-08-23T10:42:06.579Z,32.51
2022-08-23T10:43:41.393Z,32.58
2022-08-23T10:45:15.555Z,32.69
2022-08-23T10:46:57.641Z,32.71
2022-08-23T10:48:32.894Z,32.77
2022-08-23T10:50:13.170Z,32.69
2022-08-23T10:51:49.316Z,32.69
2022-08-23T10:53:34.737Z,32.70
2022-08-23T10:55:34.989Z,32.71
2022-08-23T10:57:07.956Z,32.80
2022-08-23T10:58:47.524Z,32.95
2022-08-23T11:00:24.436Z,32.97
2022-08-23T11:02:01.696Z,33.15
2022-08-23T11:03:42.399Z,33.19
2022-08-23T11:05:22.474Z,33.26
2022-08-23T11:06:56.450Z,33.24
2022-08-23T11:08:35.174Z,33.25
2022-08-23T11:10:17.054Z,33.25
2022-08-23T11:12:19.902Z,33.33
2022-08-23T11:13:53.087Z,33.43
2022-08-23T11:15:59.218Z,33.29
2022-08-23T11:17:42.516Z,33.16
2022-08-23T11:19:46.177Z,33.17
2022-08-23T11:21:22.116Z,33.09
2022-08-23T11:23:00.937Z,32.80
2022-08-23T11:24:34.711Z,32.62
2022-08-23T11:26:12.139Z,32.41
2022-08-23T11:27:44.588Z,32.41
2022-08-23T11:29:24.998Z,32.21
2022-08-23T11:31:22.782Z,32.26
2022-08-23T11:32:55.382Z,32.25
2022-08-23T11:34:29.849Z,32.18
2022-08-23T11:36:09.157Z,32.20
2022-08-23T11:37:57.288Z,32.21
2022-08-23T11:40:13.629Z,32.01
2022-08-23T11:42:03.680Z,31.96
2022-08-23T11:43:40.433Z,32.00
2022-08-23T11:45:27.472Z,32.17
2022-08-23T11:47:07.184Z,32.26
2022-08-23T11:48:46.647Z,32.41
2022-08-23T11:50:33.615Z,32.44
2022-08-23T11:52:29.416Z,32.38
2022-08-23T11:54:31.642Z,32.35
2022-08-23T11:56:21.800Z,32.25
2022-08-23T11:58:02.497Z,32.26
2022-08-23T12:00:07.745Z,32.37
2022-08-23T12:01:45.704Z,32.24
2022-08-23T12:03:27.590Z,32.12
2022-08-23T12:05:22.103Z,31.97
2022-08-23T12:06:57.733Z,32.01
2022-08-23T12:08:31.651Z,32.13
2022-08-23T12:10:05.817Z,32.13
2022-08-23T12:11:52.989Z,32.13
2022-08-23T12:13:24.853Z,32.24
2022-08-23T12:15:00.882Z,32.38
2022-08-23T12:16:34.877Z,32.31
2022-08-23T12:18:13.009Z,32.41
2022-08-23T12:19:48.978Z,32.53
2022-08-23T12:21:43.486Z,32.57
2022-08-23T12:23:19.220Z,32.59
2022-08-23T12:24:52.930Z,32.36
2022-08-23T12:26:47.439Z,32.30
2022-08-23T12:28:38.173Z,32.17
2022-08-23T12:30:23.086Z,32.22
2022-08-23T12:32:21.501Z,32.34
2022-08-23T12:34:02.880Z,32.43
2022-08-23T12:35:53.344Z,32.38
2022-08-23T12:37:52.614Z,32.38
2022-08-23T12:39:32.134Z,32.53
2022-08-23T12:41:48.608Z,32.50
2022-08-23T12:43:23.474Z,32.47
2022-08-23T12:45:17.433Z,32.40
2022-08-23T12:46:50.185Z,32.42
2022-08-23T12:48:28.978Z,32.43
2022-08-23T12:50:02.932Z,32.22
2022-08-23T12:51:42.394Z,32.18
2022-08-23T12:53:17.173Z,32.11
2022-08-23T12:54:51.039Z,32.09
2022-08-23T12:56:31.595Z,32.26
2022-08-23T12:58:05.189Z,32.40
2022-08-23T12:59:44.978Z,32.47
2022-08-23T13:01:32.699Z,32.46
2022-08-23T13:03:29.194Z,32.50
2022-08-23T13:05:13.675Z,32.58
2022-08-23T13:06:56.974Z,32.54
2022-08-23T13:08:34.987Z,32.63
2022-08-23T13:10:08.499Z,32.60
2022-08-23T13:11:40.857Z,32.47
2022-08-23T13:13:13.484Z,32.51
2022-08-23T13:14:48.704Z,32.43
2022-08-23T13:16:46.482Z,32.45
2022-08-23T13:18:31.080Z,32.48
2022-08-23T13:20:02.976Z,32.63
2022-08-23T13:21:39.528Z,32.75
2022-08-23T13:23:17.464Z,32.91
2022-08-23T13:27:14.435Z,33.06
2022-08-23T13:29:10.462Z,33.06
2022-08-23T13:30:59.074Z,32.98
2022-08-23T13:32:38.893Z,32.74
2022-08-23T13:34:10.739Z,32.63
2022-08-23T13:35:46.968Z,32.60
2022-08-23T13:37:26.877Z,32.58
2022-08-23T13:39:07.913Z,32.64
2022-08-23T13:40:45.476Z,32.71
2022-08-23T13:42:43.396Z,32.82
2022-08-23T13:44:28.021Z,32.87
2022-08-23T13:46:10.912Z,32.81
2022-08-23T13:47:51.531Z,32.74
2022-08-23T13:49:28.565Z,32.61
2022-08-23T13:51:20.707Z,32.41
2022-08-23T13:54:44.778Z,32.35
2022-08-23T13:56:23.687Z,32.33
2022-08-23T13:57:56.831Z,32.31
2022-08-23T13:59:33.549Z,32.29
2022-08-23T14:01:18.486Z,32.24
2022-08-23T14:02:52.187Z,32.17
2022-08-23T14:04:24.287Z,32.25
2022-08-23T14:05:56.316Z,32.44
2022-08-23T14:07:28.275Z,32.51
2022-08-23T14:09:02.539Z,32.63
2022-08-23T14:10:34.540Z,32.78
2022-08-23T14:12:15.754Z,32.79
2022-08-23T14:13:50.337Z,32.82
2022-08-23T14:15:54.616Z,32.87
2022-08-23T14:17:20.147Z,32.79
2022-08-23T14:20:46.050Z,32.50
2022-08-23T14:22:20.508Z,32.43
2022-08-23T14:23:52.636Z,32.38
2022-08-23T14:25:24.772Z,32.40
2022-08-23T14:26:57.553Z,32.51
2022-08-23T14:28:31.418Z,32.64
2022-08-23T14:30:05.793Z,32.76
2022-08-23T14:31:38.111Z,32.53
2022-08-23T14:33:12.786Z,32.33
2022-08-23T14:34:44.745Z,32.29
2022-08-23T14:36:16.919Z,32.25
2022-08-23T14:38:05.040Z,32.18
2022-08-23T14:39:37.272Z,32.11
2022-08-23T14:41:12.031Z,32.17
2022-08-23T14:42:46.041Z,32.26
2022-08-23T14:44:18.116Z,32.39
2022-08-23T14:45:50.588Z,32.49
2022-08-23T14:47:22.585Z,32.58
2022-08-23T14:48:57.645Z,32.70
2022-08-23T14:50:29.535Z,32.80
2022-08-23T14:52:01.513Z,32.76
2022-08-23T14:53:34.685Z,32.63
2022-08-23T14:55:07.174Z,32.66
2022-08-23T14:56:39.209Z,32.68
2022-08-23T14:58:11.116Z,32.74
2022-08-23T14:59:44.444Z,32.80
2022-08-23T15:01:17.441Z,32.85
2022-08-23T15:02:50.445Z,32.98
2022-08-23T15:04:24.222Z,33.05
2022-08-23T15:05:57.025Z,33.08
2022-08-23T15:07:28.872Z,33.08
2022-08-23T15:09:01.369Z,33.05
2022-08-23T15:14:17.485Z,32.95
2022-08-23T15:15:49.641Z,32.93
2022-08-23T15:17:21.607Z,32.94
2022-08-23T15:18:53.592Z,32.92
2022-08-23T15:20:28.611Z,33.01
2022-08-23T15:22:04.809Z,32.98
2022-08-23T15:23:47.012Z,32.94
2022-08-23T15:25:19.294Z,32.83
2022-08-23T15:26:51.800Z,32.84
2022-08-23T15:28:24.184Z,32.80
2022-08-23T15:29:55.938Z,32.83
2022-08-23T15:31:28.972Z,32.90
2022-08-23T15:33:01.147Z,32.91
2022-08-23T15:34:33.349Z,32.89
2022-08-23T15:36:08.566Z,32.94
2022-08-23T15:37:46.416Z,33.01
2022-08-23T15:39:18.277Z,33.07
2022-08-23T15:40:56.348Z,32.99
2022-08-23T15:42:28.801Z,32.87
2022-08-23T15:44:04.029Z,32.87
2022-08-23T15:45:36.539Z,32.88
2022-08-23T15:47:18.829Z,32.87
2022-08-23T15:48:59.306Z,32.73
2022-08-23T15:50:33.788Z,32.79
2022-08-23T15:52:06.095Z,32.86
2022-08-23T15:53:39.492Z,32.87
2022-08-23T15:55:11.474Z,32.90
2022-08-23T15:56:49.940Z,32.85
2022-08-23T15:58:25.240Z,32.83
2022-08-23T15:59:57.769Z,32.86
2022-08-23T16:01:33.700Z,32.89
2022-08-23T16:03:18.792Z,32.93
2022-08-23T16:04:52.680Z,32.98
2022-08-23T16:06:24.610Z,33.02
2022-08-23T16:07:57.976Z,32.99
2022-08-23T16:09:31.970Z,33.04
2022-08-23T16:11:10.553Z,33.12
2022-08-23T16:12:42.528Z,33.16
2022-08-23T16:14:14.853Z,33.16
2022-08-23T16:15:46.958Z,33.12
2022-08-23T16:17:20.407Z,33.01
2022-08-23T16:19:00.785Z,32.87
2022-08-23T16:20:32.835Z,32.77
2022-08-23T16:22:04.955Z,32.75
2022-08-23T16:23:39.968Z,32.65
2022-08-23T16:25:12.062Z,32.61
2022-08-23T16:26:45.374Z,32.58
2022-08-23T16:28:17.989Z,32.44
2022-08-23T16:29:49.682Z,32.36
2022-08-23T16:31:22.687Z,32.34
2022-08-23T16:33:11.341Z,32.36
2022-08-23T16:34:46.734Z,32.40
2022-08-23T16:36:18.704Z,32.43
2022-08-23T16:37:50.640Z,32.42
2022-08-23T16:39:22.787Z,32.43
2022-08-23T16:40:55.134Z,32.42
2022-08-23T16:42:27.130Z,32.44
2022-08-23T16:43:59.107Z,32.46
2022-08-23T16:45:31.293Z,32.43
2022-08-23T16:47:12.850Z,32.30
2022-08-23T16:48:45.363Z,32.28
2022-08-23T16:50:20.420Z,32.22
2022-08-23T16:51:53.133Z,32.19
2022-08-23T16:53:26.998Z,32.07
2022-08-23T16:54:58.929Z,32.00
2022-08-23T16:56:36.024Z,31.92
2022-08-23T16:58:08.103Z,31.87
2022-08-23T16:59:40.739Z,31.84
2022-08-23T17:01:14.892Z,31.81
2022-08-23T17:02:47.202Z,31.84
2022-08-23T17:04:19.312Z,31.81
2022-08-23T17:05:51.364Z,31.79
2022-08-23T17:07:23.401Z,31.67
2022-08-23T17:08:55.258Z,31.55
2022-08-23T17:10:27.142Z,31.54
2022-08-23T17:11:59.480Z,31.54
2022-08-23T17:13:31.510Z,31.50
2022-08-23T17:15:05.167Z,31.47
2022-08-23T17:16:37.225Z,31.41
2022-08-23T17:18:09.413Z,31.39
2022-08-23T17:19:41.587Z,31.30
2022-08-23T17:21:16.836Z,31.23
2022-08-23T17:22:49.508Z,31.20
2022-08-23T17:24:23.902Z,31.19
2022-08-23T17:25:57.829Z,31.11
2022-08-23T17:27:30.813Z,31.03
2022-08-23T17:29:04.723Z,30.98
2022-08-23T17:30:36.740Z,30.95
2022-08-23T17:32:10.084Z,30.96
2022-08-23T17:33:42.145Z,30.96
2022-08-23T17:35:15.304Z,30.99
2022-08-23T17:36:50.180Z,31.00
2022-08-23T17:38:22.073Z,31.01
2022-08-23T17:39:54.081Z,30.95
2022-08-23T17:41:27.671Z,30.86
2022-08-23T17:43:00.964Z,30.81
2022-08-23T17:44:32.912Z,30.73
2022-08-23T17:46:07.329Z,30.74
2022-08-23T17:47:39.590Z,30.71
2022-08-23T17:49:15.602Z,30.65
2022-08-23T17:50:48.472Z,30.62
2022-08-23T17:52:20.346Z,30.61
2022-08-23T17:53:54.582Z,30.59
2022-08-23T17:55:26.418Z,30.60
2022-08-23T17:57:01.907Z,30.58
2022-08-23T17:58:37.224Z,30.58
2022-08-23T18:00:09.927Z,30.58
2022-08-23T18:01:42.302Z,30.58
2022-08-23T18:03:14.628Z,30.55
2022-08-23T18:04:47.109Z,30.48
2022-08-23T18:06:18.910Z,30.42
2022-08-23T18:07:50.839Z,30.31
2022-08-23T18:09:28.640Z,30.29
2022-08-23T18:11:00.700Z,30.26
2022-08-23T18:12:32.559Z,30.28
2022-08-23T18:14:04.827Z,30.26
2022-08-23T18:15:37.748Z,30.26
2022-08-23T18:17:09.658Z,30.27
2022-08-23T18:18:41.967Z,30.25
2022-08-23T18:20:14.188Z,30.23
2022-08-23T18:21:46.874Z,30.20
2022-08-23T18:23:18.901Z,30.18
2022-08-23T18:24:50.739Z,30.15
2022-08-23T18:26:42.949Z,30.16
2022-08-23T18:28:18.184Z,30.11
2022-08-23T18:29:51.704Z,30.10
2022-08-23T18:31:23.938Z,30.06
2022-08-23T18:32:55.993Z,30.05
2022-08-23T18:34:30.381Z,30.04
2022-08-23T18:36:02.427Z,30.01
2022-08-23T18:37:34.737Z,29.97
2022-08-23T18:39:07.967Z,29.92
2022-08-23T18:40:47.994Z,29.88
2022-08-23T18:42:20.214Z,29.84
2022-08-23T18:43:52.270Z,29.79
2022-08-23T18:45:24.472Z,29.76
2022-08-23T18:46:56.370Z,29.74
2022-08-23T18:48:28.327Z,29.71
2022-08-23T18:50:00.284Z,29.67
2022-08-23T18:51:32.339Z,29.60
2022-08-23T18:53:04.611Z,29.54
2022-08-23T18:54:36.785Z,29.49
2022-08-23T18:56:08.662Z,29.44
2022-08-23T18:57:40.559Z,29.37
2022-08-23T18:59:13.100Z,29.33
2022-08-23T19:00:45.077Z,29.28
2022-08-23T19:02:21.822Z,29.21
2022-08-23T19:03:55.632Z,29.17
2022-08-23T19:05:27.608Z,29.12
2022-08-23T19:07:15.075Z,29.10
2022-08-23T19:08:47.456Z,29.04
2022-08-23T19:10:20.564Z,29.02
2022-08-23T19:11:52.538Z,28.98
2022-08-23T19:13:24.379Z,28.93
2022-08-23T19:14:56.352Z,28.90
2022-08-23T19:16:29.492Z,28.90
2022-08-23T19:18:02.334Z,28.86
2022-08-23T19:19:35.041Z,28.86
2022-08-23T19:21:07.253Z,28.82
2022-08-23T19:22:39.260Z,28.79
2022-08-23T19:24:11.112Z,28.75
2022-08-23T19:25:45.467Z,28.71
2022-08-23T19:27:17.304Z,28.67
2022-08-23T19:28:49.205Z,28.62
2022-08-23T19:30:21.023Z,28.59
2022-08-23T19:31:53.593Z,28.54
2022-08-23T19:33:25.421Z,28.48
2022-08-23T19:34:57.448Z,28.43
2022-08-23T19:36:45.400Z,28.39
2022-08-23T19:38:32.792Z,28.31
2022-08-23T19:40:05.426Z,28.27
2022-08-23T19:41:37.421Z,28.23
2022-08-23T19:43:10.276Z,28.21
2022-08-23T19:44:42.054Z,28.18
2022-08-23T19:46:18.420Z,28.14
2022-08-23T19:47:50.205Z,28.09
2022-08-23T19:49:25.918Z,28.06
2022-08-23T19:50:58.163Z,28.02
2022-08-23T19:52:30.012Z,27.95
2022-08-23T19:54:06.976Z,27.93
2022-08-23T19:55:44.736Z,27.89
2022-08-23T19:57:16.602Z,27.86
2022-08-23T19:58:48.399Z,27.85
2022-08-23T20:00:20.497Z,27.81
2022-08-23T20:01:53.064Z,27.80
2022-08-23T20:03:24.868Z,27.77
2022-08-23T20:04:56.677Z,27.74
2022-08-23T20:06:28.836Z,27.69
2022-08-23T20:08:01.062Z,27.64
2022-08-23T20:09:32.913Z,27.62
2022-08-23T20:11:04.765Z,27.58
2022-08-23T20:12:36.565Z,27.54
2022-08-23T20:14:08.428Z,27.52
2022-08-23T20:15:40.250Z,27.49
2022-08-23T20:17:12.126Z,27.47
2022-08-23T20:18:44.231Z,27.44
2022-08-23T20:20:15.976Z,27.41
2022-08-23T20:21:47.711Z,27.36
2022-08-23T20:23:38.416Z,27.30
2022-08-23T20:25:13.692Z,27.24
2022-08-23T20:26:46.773Z,27.19
2022-08-23T20:28:20.387Z,27.20
2022-08-23T20:29:55.021Z,27.18
2022-08-23T20:31:28.466Z,27.18
2022-08-23T20:33:00.261Z,27.16
2022-08-23T20:34:32.899Z,27.13
2022-08-23T20:36:08.960Z,27.11
2022-08-23T20:37:40.766Z,27.08
2022-08-23T20:39:12.619Z,27.04
2022-08-23T20:40:44.347Z,27.00
2022-08-23T20:42:16.467Z,26.97
2022-08-23T20:43:49.478Z,26.93
2022-08-23T20:45:21.408Z,26.90
2022-08-23T20:46:55.991Z,26.87
2022-08-23T20:48:31.102Z,26.82
2022-08-23T20:50:03.822Z,26.80
2022-08-23T20:51:36.922Z,26.78
2022-08-23T20:53:12.062Z,26.73
2022-08-23T20:54:43.899Z,26.69
2022-08-23T20:56:16.206Z,26.67
2022-08-23T20:57:48.058Z,26.64
2022-08-23T20:59:20.106Z,26.62
2022-08-23T21:00:52.245Z,26.60
2022-08-23T21:02:24.333Z,26.56
2022-08-23T21:03:56.375Z,26.53
2022-08-23T21:05:28.172Z,26.49